Latest Coastal Weather Observations for Cooktown

IDQ60701

Issued at 9:42 am EST Wednesday 13 December 2017 (issued every 10 minutes, with the page automatically refreshed every 10 minutes)

About coastal observations | Map of coastal stations | Coastal observations for QLD | Marine services | Other Formats
Station Details ID: 031209 Name: COOKTOWN AIRPORT Lat: -15.45 Lon: 145.19 Height: 4.8 m
Data from the previous 72 hours. | See also: Recent months at Cooktown
Date/Time
EST
Temp
°C
Wind Pressure Rain since
9am
mm
Weather Cloud Vis
km
Sea
Height
m
Swell
Dir  Spd
kts
Gust
kts
hPa Trend Height
m
Period
s
Dir
13/09:30am 30.3 ESE 14 19 1011.2 - 0.0 - Partly cloudy 10 - - - -
13/09:00am 30.0 ESE 10 19 1011.1 R 0.0 Fine Partly cloudy 40 - - - -
13/08:30am 28.3 SE 13 18 1011.1 - 0.0 - Partly cloudy 10 - - - -
13/08:00am 28.9 SE 11 16 1010.5 - 0.0 - Partly cloudy 10 - - - -
13/07:30am 28.2 ESE 10 16 1010.5 - 0.0 - Partly cloudy 10 - - - -
13/07:00am 27.0 ESE 10 14 1010.0 - 0.0 - Partly cloudy 10 - - - -
13/06:30am 25.9 S 5 8 1009.8 - 0.0 - Partly cloudy 10 - - - -
13/06:00am 25.3 SSE 4 - 1009.2 - - - Partly cloudy - - - - -
13/05:30am 24.7 SE 5 8 1008.9 - 0.0 - - 10 - - - -
13/05:00am 24.1 SSE 4 6 1008.6 - 0.0 - - 10 - - - -
13/04:30am 24.1 S 5 9 1008.3 - 0.0 - Partly cloudy 10 - - - -
13/04:00am 24.3 SSE 5 11 1008.4 - 0.0 - - 10 - - - -
13/03:30am 23.6 SSE 5 6 1008.6 - 0.0 - Partly cloudy 10 - - - -
13/03:00am 24.1 S 7 10 1008.8 - 0.0 - Mostly cloudy 10 - - - -
13/02:30am 26.3 ESE 10 17 1008.9 - 0.0 - - 10 - - - -
13/02:00am 25.7 ESE 12 18 1009.2 - 0.0 - - 10 - - - -
13/01:30am 26.2 ESE 9 13 1009.4 - 0.0 - Partly cloudy 10 - - - -
13/01:00am 26.0 E 12 17 1010.1 - 0.0 - Partly cloudy 10 - - - -
13/12:30am 26.2 SE 8 15 1010.3 - 0.0 - Partly cloudy 10 - - - -
13/12:00am 26.5 ESE 9 16 1010.4 - 0.0 - Mostly clear 10 - - - -
 
Date/Time
EST
Temp
°C
Wind Pressure Rain since
9am
mm
Weather Cloud Vis
km
Sea
Height
m
Swell
Dir  Spd
kts
Gust
kts
hPa Trend Height
m
Period
s
Dir
12/11:30pm 26.7 SE 9 14 1010.8 - 0.0 - Partly cloudy 10 - - - -
12/11:00pm 26.8 ESE 11 15 1010.9 - 0.0 - Partly cloudy 10 - - - -
12/10:30pm 27.1 ESE 12 19 1010.7 - 0.0 - Partly cloudy 10 - - - -
12/10:00pm 27.2 ESE 12 21 1010.7 - 0.0 - Partly cloudy 10 - - - -
12/09:30pm 27.2 ESE 12 19 1010.5 - 0.0 - Partly cloudy 10 - - - -
12/09:00pm 27.2 ESE 10 16 1010.3 - 0.0 - Mostly clear 10 - - - -
12/08:30pm 27.2 ESE 11 17 1010.1 - 0.0 - Partly cloudy 10 - - - -
12/08:00pm 27.1 SE 8 13 1010.2 - 0.0 - Partly cloudy 10 - - - -
12/07:30pm 27.3 SE 11 15 1009.9 - 0.0 - Partly cloudy 10 - - - -
12/07:00pm 27.3 ESE 10 18 1009.6 - 0.0 - Partly cloudy 10 - - - -
12/06:30pm 27.6 SE 12 19 1009.4 - 0.0 - Partly cloudy 10 - - - -
12/06:00pm 28.4 SE 11 20 1008.9 - 0.0 - Mostly clear 10 - - - -
12/05:30pm 28.8 ESE 14 19 1008.5 - 0.0 - - 10 - - - -
12/05:00pm 29.6 ESE 14 19 1008.5 - 0.0 - - 10 - - - -
12/04:30pm 30.1 ESE 14 19 1008.5 - 0.0 - - 10 - - - -
12/04:00pm 31.1 ESE 13 18 1008.5 - 0.0 - - 10 - - - -
12/03:30pm 30.7 SSE 14 23 1008.7 - 0.0 - - 10 - - - -
12/03:00pm 31.2 SSE 15 22 1008.7 - 0.0 - - 10 - - - -
12/02:36pm 30.4 ESE 16 26 1009.0 - 0.0 - - 10 - - - -
12/02:30pm 30.5 ESE 16 23 1009.1 - 0.0 - - 10 - - - -
12/02:00pm 31.7 E 18 23 1009.4 - 0.0 - - 10 - - - -
12/01:30pm 32.3 ESE 17 23 1009.9 - 0.0 - Partly cloudy 10 - - - -
12/01:00pm 31.2 E 16 22 1010.1 - 0.0 - Partly cloudy 10 - - - -
12/12:30pm 31.3 E 16 23 1010.6 - 0.0 - Partly cloudy 10 - - - -
12/12:00pm 31.5 E 15 22 1011.0 - 0.0 - Mostly clear 10 - - - -
12/11:30am 31.1 ESE 14 20 1011.5 - 0.0 - - 10 - - - -
12/11:00am 30.6 ESE 12 17 1011.9 - 0.0 - Partly cloudy 10 - - - -
12/10:30am 30.7 ESE 14 21 1012.3 - 0.0 - Partly cloudy 10 - - - -
12/10:00am 30.5 ESE 15 19 1012.5 - 0.0 - Partly cloudy 10 - - - -
12/09:30am 30.6 ESE 15 21 1012.3 - 0.0 - Partly cloudy 10 - - - -
12/09:00am 30.0 ESE 14 21 1012.1 R 0.0 Fine Mostly clear 35 - - - -
12/08:30am 29.6 ESE 13 19 1011.9 - 0.0 - Partly cloudy 10 - - - -
12/08:00am 29.0 ESE 12 17 1011.7 - 0.0 - - 10 - - - -
12/07:30am 28.8 SE 10 17 1011.4 - 0.0 - Partly cloudy 10 - - - -
12/07:00am 27.6 SE 10 16 1011.2 - 0.0 - Partly cloudy 10 - - - -
12/06:30am 27.3 SE 8 12 1010.9 - 0.0 - Partly cloudy 10 - - - -
12/06:00am 26.5 SE 6 9 1010.3 - 0.0 - Mostly clear 10 - - - -
12/05:30am 26.3 SE 6 13 1010.0 - 0.0 - Partly cloudy 10 - - - -
12/05:00am 26.5 SE 7 12 1009.4 - 0.0 - Partly cloudy 10 - - - -
12/04:30am 26.5 ESE 9 15 1009.2 - 0.0 - Partly cloudy 10 - - - -
12/04:00am 26.7 ESE 10 16 1009.1 - 0.0 - Partly cloudy 10 - - - -
12/03:30am 26.8 SE 10 15 1008.8 - 0.0 - Partly cloudy 10 - - - -
12/03:00am 26.7 ESE 8 13 1008.8 - 0.0 - Partly cloudy 10 - - - -
12/02:30am 26.8 ESE 8 12 1008.9 - 0.0 - Partly cloudy 10 - - - -
12/02:00am 26.7 ESE 8 13 1009.4 - 0.0 - Partly cloudy 10 - - - -
12/01:30am 27.1 ESE 9 12 1009.7 - 0.0 - Partly cloudy 10 - - - -
12/01:00am 27.2 SE 9 15 1010.2 - 0.0 - Partly cloudy 10 - - - -
12/12:30am 27.1 ESE 9 14 1010.5 - 0.0 - Partly cloudy 10 - - - -
12/12:00am 26.9 ESE 10 13 1011.0 - 0.0 - Cloudy 10 - - - -
 
Date/Time
EST
Temp
°C
Wind Pressure Rain since
9am
mm
Weather Cloud Vis
km
Sea
Height
m
Swell
Dir  Spd
kts
Gust
kts
hPa Trend Height
m
Period
s
Dir
11/11:30pm 27.2 ESE 11 16 1011.5 - 0.0 - Partly cloudy 10 - - - -
11/11:00pm 27.3 ESE 10 15 1011.6 - 0.0 - Partly cloudy 10 - - - -
11/10:30pm 27.3 ESE 12 16 1011.2 - 0.0 - Partly cloudy 10 - - - -
11/10:00pm 27.4 SE 7 11 1011.1 - 0.0 - Partly cloudy 10 - - - -
11/09:30pm 27.3 SE 11 15 1010.8 - 0.0 - - 10 - - - -
11/09:00pm 27.4 SE 9 15 1010.6 - 0.0 - Partly cloudy 10 - - - -
11/08:30pm 27.5 SE 9 14 1010.5 - 0.0 - Partly cloudy 10 - - - -
11/08:00pm 27.6 ESE 10 18 1010.4 - 0.0 - Partly cloudy 10 - - - -
11/07:30pm 27.7 ESE 11 18 1010.4 - 0.0 - Partly cloudy 10 - - - -
11/07:00pm 28.1 ESE 13 19 1010.3 - 0.0 - Partly cloudy 10 - - - -
11/06:30pm 28.2 ESE 12 17 1010.1 - 0.0 - Partly cloudy 10 - - - -
11/06:00pm 28.8 ESE 13 19 1010.0 - 0.0 - Mostly cloudy 10 - - - -
11/05:30pm 29.1 ESE 18 26 1009.7 - 0.0 - Partly cloudy 10 - - - -
11/05:00pm 29.3 ESE 16 25 1009.5 - 0.0 - Partly cloudy 10 - - - -
11/04:30pm 30.2 ESE 13 21 1009.3 - 0.0 - Partly cloudy 10 - - - -
11/04:00pm 30.4 ESE 12 17 1009.3 - 0.0 - Partly cloudy 10 - - - -
11/03:30pm 30.7 ESE 11 17 1009.1 - 0.0 - Partly cloudy 10 - - - -
11/03:00pm 31.3 ESE 13 24 1009.0 - 0.0 - Mostly clear 10 - - - -
11/02:30pm 31.1 ESE 15 22 1009.4 - 0.0 - Partly cloudy 10 - - - -
11/02:04pm 31.1 ESE 16 26 1009.5 - 0.0 - Partly cloudy 10 - - - -
11/02:00pm 31.2 ESE 17 26 1009.6 - 0.0 - Partly cloudy 10 - - - -
11/01:57pm 31.3 ESE 16 26 1009.5 - 0.0 - Partly cloudy 10 - - - -
11/01:30pm 31.6 ESE 15 23 1009.9 - 0.0 - Partly cloudy 10 - - - -
11/01:00pm 31.5 ESE 15 27 1010.2 - 0.0 - Partly cloudy 10 - - - -
11/12:52pm 31.5 E 17 27 1010.2 - 0.0 - Partly cloudy 10 - - - -
11/12:30pm 31.7 ESE 15 22 1010.5 - 0.0 - - 10 - - - -
11/12:00pm 32.0 E 15 23 1010.8 - 0.0 - Partly cloudy 10 - - - -
11/11:30am 31.3 ESE 15 21 1011.1 - 0.0 - Partly cloudy 10 - - - -
11/11:00am 31.1 ESE 15 23 1011.6 - 0.0 - Partly cloudy 10 - - - -
11/10:30am 30.8 ESE 17 23 1011.9 - 0.0 - Partly cloudy 10 - - - -
11/10:00am 30.6 ESE 15 20 1012.3 - 0.0 - Partly cloudy 10 - - - -
11/09:30am 30.4 ESE 16 23 1012.3 - 0.0 - - 10 - - - -
11/09:00am 30.0 ESE 15 24 1011.9 R 0.0 Fine Mostly clear 40 - - - -
11/08:30am 29.5 SE 13 21 1012.1 - 0.0 - Partly cloudy 10 - - - -
11/08:00am 29.4 ESE 15 20 1012.0 - 0.0 - Partly cloudy 10 - - - -
11/07:30am 28.9 ESE 12 20 1011.9 - 0.0 - Partly cloudy 10 - - - -
11/07:00am 28.2 ESE 14 19 1011.8 - 0.0 - Partly cloudy 10 - - - -
11/06:30am 27.7 ESE 11 18 1011.6 - 0.0 - Partly cloudy 10 - - - -
11/06:00am 27.2 ESE 11 16 1010.8 - 0.0 - Mostly clear 10 - - - -
11/05:30am 27.2 SE 12 18 1010.5 - 0.0 - - 10 - - - -
11/05:00am 26.9 SE 9 14 1010.2 - 0.0 - - 10 - - - -
11/04:30am 27.0 ESE 12 17 1010.0 - 0.0 - - 10 - - - -
11/04:00am 27.1 ESE 12 17 1010.0 - 0.0 - - 10 - - - -
11/03:30am 27.0 SE 11 19 1010.0 - 0.0 - Partly cloudy 10 - - - -
11/03:00am 27.3 SE 11 18 1010.1 - 0.0 - Mostly cloudy 10 - - - -
11/02:30am 27.3 ESE 11 17 1010.4 - 0.0 - Partly cloudy 10 - - - -
11/02:00am 27.1 ESE 11 18 1010.6 - 0.0 - Partly cloudy 10 - - - -
11/01:30am 27.2 ESE 11 17 1010.9 - 0.0 - Partly cloudy 10 - - - -
11/01:00am 27.4 ESE 11 16 1011.2 - 0.0 - Partly cloudy 10 - - - -
11/12:30am 27.3 ESE 10 17 1011.6 - 0.0 - Partly cloudy 10 - - - -
11/12:00am 27.7 ESE 13 21 1011.8 - 0.0 - Cloudy 10 - - - -
 
Date/Time
EST
Temp
°C
Wind Pressure Rain since
9am
mm
Weather Cloud Vis
km
Sea
Height
m
Swell
Dir  Spd
kts
Gust
kts
hPa Trend Height
m
Period
s
Dir
10/11:30pm 27.8 ESE 13 19 1011.9 - 0.0 - Partly cloudy 10 - - - -
10/11:00pm 27.7 ESE 14 21 1012.1 - 0.0 - Partly cloudy 10 - - - -
10/10:30pm 27.8 ESE 13 22 1012.1 - 0.0 - Partly cloudy 10 - - - -
10/10:00pm 27.9 ESE 16 26 1012.2 - 0.0 - Partly cloudy 10 - - - -
10/09:59pm 28.0 ESE 16 26 1012.2 - 0.0 - Partly cloudy 10 - - - -
10/09:30pm 27.9 ESE 12 19 1012.0 - 0.0 - Partly cloudy 10 - - - -
10/09:00pm 28.0 ESE 11 18 1011.7 - 0.0 - Cloudy 10 - - - -
10/08:30pm 27.9 SE 10 18 1011.7 - 0.0 - Partly cloudy 10 - - - -
10/08:00pm 28.0 SE 8 15 1011.4 - 0.0 - Partly cloudy 10 - - - -
10/07:30pm 28.0 SE 9 15 1011.1 - 0.0 - Partly cloudy 10 - - - -
10/07:00pm 28.1 ESE 11 17 1010.9 - 0.0 - Partly cloudy 10 - - - -
10/06:30pm 28.3 SE 12 17 1010.5 - 0.0 - Partly cloudy 10 - - - -
10/06:00pm 28.8 ESE 13 20 1010.3 - 0.0 - Mostly clear 10 - - - -
10/05:30pm 29.8 SE 11 17 1010.4 - 0.0 - Partly cloudy 10 - - - -
10/05:00pm 29.5 SE 15 24 1010.3 - 0.0 - Partly cloudy 10 - - - -
10/04:30pm 31.2 ESE 13 21 1010.1 - 0.0 - Partly cloudy 10 - - - -
10/04:00pm 31.3 ESE 14 23 1010.3 - 0.0 - Partly cloudy 10 - - - -
10/03:30pm 30.5 ESE 18 25 1010.3 - 0.0 - Partly cloudy 10 - - - -
10/03:10pm 31.1 ESE 16 26 1010.2 - 0.0 - Partly cloudy 10 - - - -
10/03:00pm 31.1 SE 17 25 1010.1 - 0.0 - - 10 - - - -
10/02:32pm 30.5 SE 16 26 1010.3 - 0.0 - Partly cloudy 10 - - - -
10/02:30pm 30.9 ESE 17 26 1010.2 - 0.0 - Partly cloudy 10 - - - -
10/02:00pm 31.7 ESE 16 24 1010.2 - 0.0 - Partly cloudy 10 - - - -
10/01:30pm 31.9 ESE 13 21 1010.4 - 0.0 - Partly cloudy 10 - - - -
10/01:00pm 31.6 SE 15 23 1010.7 - 0.0 - Partly cloudy 10 - - - -
10/12:30pm 32.1 ESE 15 23 1010.8 - 0.0 - Partly cloudy 10 - - - -
10/12:02pm 32.0 SE 15 26 1011.0 - 0.0 - Partly cloudy 10 - - - -
10/12:00pm 32.2 SE 14 20 1010.9 - 0.0 - Mostly cloudy 10 - - - -
10/11:32am 31.6 SE 15 28 1011.0 - 0.0 - Partly cloudy 10 - - - -
10/11:30am 32.2 ESE 15 22 1011.0 - 0.0 - Partly cloudy 10 - - - -
10/11:00am 30.2 SE 15 22 1011.5 - 0.0 - Partly cloudy 10 - - - -
10/10:30am 31.1 SE 13 22 1011.6 - 0.0 - Partly cloudy 10 - - - -
10/10:00am 30.8 SE 16 22 1011.6 - 0.0 - Partly cloudy 10 - - - -

Other Formats:

Comma delimited format used in spreadsheet applications
http://www.bom.gov.au/fwo/IDQ60701/IDQ60701.95283.axf

JavaScript Object Notation format (JSON) in row-major order
http://www.bom.gov.au/fwo/IDQ60701/IDQ60701.95283.json